createdAt,value
2018-10-06T11:05:28.799Z,21.41
2018-10-06T11:07:58.027Z,21.24
2018-10-06T11:10:27.233Z,21.19
2018-10-06T11:12:56.624Z,21.12
2018-10-06T11:15:25.841Z,21.00
2018-10-06T11:17:55.029Z,21.12
2018-10-06T11:20:24.283Z,21.34
2018-10-06T11:22:53.483Z,21.59
2018-10-06T11:25:23.707Z,21.45
2018-10-06T11:27:52.923Z,21.37
2018-10-06T11:30:22.124Z,21.40
2018-10-06T11:32:51.346Z,21.58
2018-10-06T11:35:20.728Z,21.72
2018-10-06T11:37:50.087Z,21.96
2018-10-06T11:40:19.232Z,21.50
2018-10-06T11:42:48.490Z,21.76
2018-10-06T11:45:17.882Z,21.76
2018-10-06T11:47:46.992Z,21.83
2018-10-06T11:50:16.245Z,22.22
2018-10-06T11:52:45.394Z,22.48
2018-10-06T11:55:14.629Z,22.82
2018-10-06T11:57:43.883Z,22.96
2018-10-06T12:00:13.328Z,22.84
2018-10-06T12:02:42.397Z,23.26
2018-10-06T12:05:11.629Z,23.58
2018-10-06T12:07:40.863Z,23.90
2018-10-06T12:10:10.161Z,24.10
2018-10-06T12:12:39.432Z,23.58
2018-10-06T12:15:08.661Z,23.76
2018-10-06T12:17:37.904Z,23.87
2018-10-06T12:20:07.091Z,24.26
2018-10-06T12:22:36.329Z,23.92
2018-10-06T12:25:05.566Z,24.67
2018-10-06T12:27:34.778Z,24.50
2018-10-06T12:30:04.130Z,25.17
2018-10-06T12:32:33.395Z,25.37
2018-10-06T12:35:04.293Z,25.25
2018-10-06T12:37:33.438Z,25.53
2018-10-06T12:40:02.692Z,25.08
2018-10-06T12:42:31.992Z,24.76
2018-10-06T12:45:01.205Z,24.81
2018-10-06T12:47:33.361Z,25.18
2018-10-06T12:50:02.625Z,25.05
2018-10-06T12:52:32.041Z,25.47
2018-10-06T12:55:01.294Z,25.80
2018-10-06T12:57:30.661Z,25.68
2018-10-06T13:00:00.046Z,25.59
2018-10-06T13:02:29.284Z,25.97
2018-10-06T13:04:58.559Z,26.08
2018-10-06T13:07:27.887Z,26.13
2018-10-06T13:09:57.188Z,24.95
2018-10-06T13:12:26.507Z,25.84
2018-10-06T13:14:55.793Z,25.41
2018-10-06T13:17:25.108Z,26.27
2018-10-06T13:19:54.392Z,25.78
2018-10-06T13:22:23.733Z,26.30
2018-10-06T13:24:53.021Z,26.34
2018-10-06T13:27:22.293Z,26.41
2018-10-06T13:29:53.451Z,26.23
2018-10-06T13:32:22.839Z,26.85
2018-10-06T13:34:52.155Z,26.58
2018-10-06T13:37:21.690Z,26.48
2018-10-06T13:39:51.513Z,26.37
2018-10-06T13:42:20.843Z,26.66
2018-10-06T13:44:50.217Z,26.66
2018-10-06T13:47:19.490Z,26.24
2018-10-06T13:49:48.842Z,26.31
2018-10-06T13:52:20.128Z,26.48
2018-10-06T13:54:49.472Z,26.56
2018-10-06T13:57:19.269Z,26.14
2018-10-06T13:59:48.686Z,26.01
2018-10-06T14:02:20.090Z,26.48
2018-10-06T14:04:49.411Z,26.70
2018-10-06T14:07:18.695Z,26.30
2018-10-06T14:09:48.029Z,26.35
2018-10-06T14:12:17.331Z,26.49
2018-10-06T14:14:46.627Z,26.83
2018-10-06T14:17:15.999Z,26.68
2018-10-06T14:19:45.323Z,26.28
2018-10-06T14:22:15.251Z,26.51
2018-10-06T14:24:44.550Z,26.92
2018-10-06T14:27:13.980Z,26.85
2018-10-06T14:29:43.314Z,26.85
2018-10-06T14:32:12.613Z,26.41
2018-10-06T14:34:42.918Z,26.63
2018-10-06T14:37:12.253Z,26.11
2018-10-06T14:39:41.562Z,26.54
2018-10-06T14:42:10.808Z,25.88
2018-10-06T14:44:40.127Z,26.11
2018-10-06T14:47:09.366Z,26.22
2018-10-06T14:49:38.584Z,26.07
2018-10-06T14:52:07.906Z,25.52
2018-10-06T14:54:37.155Z,25.70
2018-10-06T14:57:06.432Z,25.66
2018-10-06T14:59:35.625Z,25.75
2018-10-06T15:02:04.855Z,25.64
2018-10-06T15:04:34.067Z,25.46
2018-10-06T15:07:04.214Z,25.53
2018-10-06T15:09:33.362Z,25.39
2018-10-06T15:12:02.561Z,25.63
2018-10-06T15:14:31.785Z,25.50
2018-10-06T15:17:02.013Z,25.44
2018-10-06T15:19:31.212Z,25.11
2018-10-06T15:22:00.458Z,25.13
2018-10-06T15:24:29.676Z,25.06
2018-10-06T15:27:00.455Z,25.17
2018-10-06T15:29:29.653Z,24.82
2018-10-06T15:31:58.909Z,24.85
2018-10-06T15:34:28.098Z,24.86
2018-10-06T15:36:57.345Z,24.80
2018-10-06T15:39:26.535Z,24.72
2018-10-06T15:41:55.766Z,24.43
2018-10-06T15:44:25.004Z,24.46
2018-10-06T15:46:54.291Z,24.41
2018-10-06T15:49:23.518Z,24.27
2018-10-06T15:51:52.753Z,24.36
2018-10-06T15:54:21.966Z,24.23
2018-10-06T15:56:51.352Z,24.05
2018-10-06T15:59:20.606Z,24.12
2018-10-06T16:01:49.908Z,23.97
2018-10-06T16:04:19.114Z,23.93
2018-10-06T16:06:48.356Z,23.74
2018-10-06T16:09:17.531Z,23.59
2018-10-06T16:11:46.774Z,23.58
2018-10-06T16:14:15.974Z,23.70
2018-10-06T16:16:45.617Z,23.61
2018-10-06T16:19:14.843Z,23.50
2018-10-06T16:21:44.197Z,23.28
2018-10-06T16:24:13.453Z,23.15
2018-10-06T16:26:42.631Z,23.08
2018-10-06T16:29:11.815Z,23.01
2018-10-06T16:31:41.002Z,22.89
2018-10-06T16:34:10.823Z,22.76
2018-10-06T16:36:40.024Z,22.69
2018-10-06T16:39:09.253Z,22.62
2018-10-06T16:41:38.431Z,22.55
2018-10-06T16:44:07.711Z,22.45
2018-10-06T16:46:36.911Z,22.46
2018-10-06T16:49:07.221Z,22.32
2018-10-06T16:51:36.501Z,22.12
2018-10-06T16:54:05.894Z,22.01
2018-10-06T16:56:35.157Z,21.90
2018-10-06T16:59:04.361Z,21.84
2018-10-06T17:01:33.651Z,21.84
2018-10-06T17:04:02.789Z,21.64
2018-10-06T17:06:32.202Z,21.52
2018-10-06T17:09:01.637Z,21.50
2018-10-06T17:11:30.910Z,21.28
2018-10-06T17:14:00.144Z,21.31
2018-10-06T17:16:29.338Z,21.17
2018-10-06T17:18:58.537Z,21.09
2018-10-06T17:21:27.730Z,21.02
2018-10-06T17:23:56.991Z,21.00
2018-10-06T17:26:26.226Z,20.92
2018-10-06T17:28:55.465Z,20.83
2018-10-06T17:31:24.707Z,20.71
2018-10-06T17:33:54.258Z,20.61
2018-10-06T17:36:23.474Z,20.59
2018-10-06T17:38:52.915Z,20.56
2018-10-06T17:41:22.130Z,20.44
2018-10-06T17:43:51.436Z,20.36
2018-10-06T17:46:21.264Z,20.29
2018-10-06T17:48:50.623Z,20.24
2018-10-06T17:51:19.999Z,20.22
2018-10-06T17:53:49.382Z,20.10
2018-10-06T17:56:18.674Z,20.08
2018-10-06T17:58:47.999Z,19.97
2018-10-06T18:01:17.254Z,19.99
2018-10-06T18:03:46.557Z,19.86
2018-10-06T18:06:21.271Z,19.84
2018-10-06T18:08:50.587Z,19.80
2018-10-06T18:11:19.867Z,19.61
2018-10-06T18:13:49.299Z,19.48
2018-10-06T18:16:18.984Z,19.47
2018-10-06T18:18:48.248Z,19.49
2018-10-06T18:21:17.541Z,19.50
2018-10-06T18:23:46.795Z,19.45
2018-10-06T18:26:16.101Z,19.33
2018-10-06T18:28:45.409Z,19.26
2018-10-06T18:31:14.745Z,19.31
2018-10-06T18:33:44.077Z,19.23
2018-10-06T18:36:17.822Z,19.08
2018-10-06T18:38:47.050Z,18.97
2018-10-06T18:41:16.396Z,18.86
2018-10-06T18:43:45.731Z,18.87
2018-10-06T18:46:15.472Z,18.81
2018-10-06T18:48:44.719Z,18.71
2018-10-06T18:51:13.980Z,18.65
2018-10-06T18:53:43.226Z,18.68
2018-10-06T18:56:12.531Z,18.63
2018-10-06T18:58:41.908Z,18.55
2018-10-06T19:01:11.199Z,18.45
2018-10-06T19:03:40.557Z,18.47
2018-10-06T19:06:09.673Z,18.32
2018-10-06T19:08:38.906Z,18.40
2018-10-06T19:11:08.129Z,18.31
2018-10-06T19:13:37.353Z,18.46
2018-10-06T19:16:07.264Z,18.37
2018-10-06T19:18:36.561Z,18.30
2018-10-06T19:21:05.809Z,18.37
2018-10-06T19:23:35.229Z,18.32
2018-10-06T19:26:04.650Z,18.22
2018-10-06T19:28:34.956Z,18.18
2018-10-06T19:31:04.331Z,18.14
2018-10-06T19:33:33.599Z,18.09
2018-10-06T19:36:02.971Z,18.07
2018-10-06T19:38:32.383Z,17.87
2018-10-06T19:41:01.636Z,17.88
2018-10-06T19:43:30.935Z,17.88
2018-10-06T19:46:00.268Z,17.90
2018-10-06T19:48:29.485Z,17.83
2018-10-06T19:51:00.754Z,17.79
2018-10-06T19:53:30.025Z,17.67
2018-10-06T19:55:59.351Z,17.63
2018-10-06T19:58:28.636Z,17.60
2018-10-06T20:00:57.831Z,17.65
2018-10-06T20:03:27.073Z,17.60
2018-10-06T20:05:56.318Z,17.49
2018-10-06T20:08:25.540Z,17.52
2018-10-06T20:10:54.768Z,17.44
2018-10-06T20:13:23.963Z,17.46
2018-10-06T20:15:53.195Z,17.43
2018-10-06T20:18:22.406Z,17.36
2018-10-06T20:20:51.613Z,17.32
2018-10-06T20:23:20.833Z,17.28
2018-10-06T20:25:50.047Z,17.25
2018-10-06T20:28:19.257Z,17.29
2018-10-06T20:30:48.501Z,17.19
2018-10-06T20:33:17.736Z,17.22
2018-10-06T20:35:46.959Z,17.22
2018-10-06T20:38:16.219Z,17.16
2018-10-06T20:40:45.641Z,17.10
2018-10-06T20:43:14.925Z,17.05
2018-10-06T20:45:44.165Z,17.03
2018-10-06T20:48:13.474Z,16.95
2018-10-06T20:50:42.805Z,16.91
2018-10-06T20:53:12.139Z,17.01
2018-10-06T20:55:41.481Z,17.03
2018-10-06T20:58:10.716Z,16.93
2018-10-06T21:00:40.149Z,17.00
2018-10-06T21:03:09.442Z,16.98
2018-10-06T21:05:38.662Z,16.91
2018-10-06T21:08:07.909Z,16.96
2018-10-06T21:10:37.131Z,16.93
2018-10-06T21:13:06.394Z,16.68
2018-10-06T21:15:35.723Z,16.80
2018-10-06T21:18:04.947Z,16.72
2018-10-06T21:20:34.343Z,16.75
2018-10-06T21:23:03.584Z,16.59
2018-10-06T21:25:32.802Z,16.66
2018-10-06T21:28:01.994Z,16.25
2018-10-06T21:30:31.251Z,16.45
2018-10-06T21:33:00.537Z,16.49
2018-10-06T21:35:29.726Z,16.41
2018-10-06T21:37:58.989Z,16.28
2018-10-06T21:40:28.384Z,16.35
2018-10-06T21:42:57.794Z,16.40
2018-10-06T21:45:27.086Z,16.37
2018-10-06T21:47:56.323Z,16.35
2018-10-06T21:50:25.566Z,16.24
2018-10-06T21:52:54.788Z,16.28
2018-10-06T21:55:24.016Z,16.28
2018-10-06T21:57:53.358Z,16.15
2018-10-06T22:00:22.570Z,16.14
2018-10-06T22:02:51.872Z,16.11
2018-10-06T22:05:21.120Z,16.16
2018-10-06T22:07:50.646Z,16.13
2018-10-06T22:10:19.885Z,16.17
2018-10-06T22:12:49.120Z,16.09
2018-10-06T22:15:18.411Z,16.02
2018-10-06T22:17:47.569Z,16.12
2018-10-06T22:20:16.792Z,16.23
2018-10-06T22:22:46.011Z,16.06
2018-10-06T22:25:15.337Z,16.08
2018-10-06T22:27:44.516Z,15.95
2018-10-06T22:30:13.732Z,16.06
2018-10-06T22:32:42.966Z,16.10
2018-10-06T22:35:12.303Z,16.05
2018-10-06T22:37:41.501Z,15.90
2018-10-06T22:40:10.766Z,15.85
2018-10-06T22:42:39.999Z,15.91
2018-10-06T22:45:09.252Z,15.93
2018-10-06T22:47:38.483Z,15.79
2018-10-06T22:50:08.155Z,15.78
2018-10-06T22:52:37.371Z,15.77
2018-10-06T22:55:06.615Z,15.68
2018-10-06T22:57:35.910Z,15.75
2018-10-06T23:00:05.454Z,15.48
2018-10-06T23:02:34.895Z,15.53
2018-10-06T23:05:04.233Z,15.44
2018-10-06T23:07:33.522Z,15.49
2018-10-06T23:10:02.766Z,15.26
2018-10-06T23:12:32.916Z,15.35
2018-10-06T23:15:02.169Z,15.22
2018-10-06T23:17:31.411Z,15.20
2018-10-06T23:20:00.620Z,15.10
2018-10-06T23:22:29.824Z,15.02
2018-10-06T23:24:59.338Z,14.82
2018-10-06T23:27:28.791Z,14.88
2018-10-06T23:29:58.060Z,14.45
2018-10-06T23:32:27.294Z,14.60
2018-10-06T23:34:56.607Z,14.53
2018-10-06T23:37:25.886Z,14.55
2018-10-06T23:39:55.166Z,14.37
2018-10-06T23:42:24.440Z,14.28
2018-10-06T23:44:54.836Z,14.35
2018-10-06T23:47:24.096Z,14.19
2018-10-06T23:49:53.338Z,14.30
2018-10-06T23:52:22.763Z,14.21
2018-10-06T23:54:52.038Z,14.12
2018-10-06T23:57:21.364Z,14.16
2018-10-06T23:59:50.633Z,14.20
